Main page
METAR-TAF:

METAR-TAF

Airports :

Porto Alegre, Rio Grande do Sul, Brazil

Salgado Filho International Airport

latitude: 30-00S, longitude: 051-11W, elevation: 3 m

Current weather observation

The report was made 1 hour and 10 minutes ago, at 16:00 UTC
Wind 4 kt from the East/Northeast, varying between North and East/Southeast
Temperature 25°C
Humidity 57%
Pressure 1021 hPa
Visibility 10 km or more
no clouds below 1500 m and no cumulonimbus

METAR: SBPA 231600Z 06004KT 010V110 CAVOK 25/16 Q1021

Time: 14:10 (17:10 UTC)

Forecast

The report was made 7 hours and 40 minutes ago, at 09:30 UTC
Forecast valid from 23 at 12 UTC to 24 at 12 UTC
Wind 4 kt from the East/Northeast
Visibility 10 km or more
no clouds below 1500 m and no cumulonimbus
Probability 30%
from 24 at 09 UTC to 24 at 11 UTC
Visibility: 2000 m
mist

TAF: SBPA 230930Z 2312/2412 07004KT CAVOK TX25/2318Z TN15/2409Z PROB30 2409/2411 2000 BR NSC RMK PER

Weather observations and forecasts of more than 4000 airports (METAR and TAF reports).

The available stations are represented by yellow and red dots on the map.

Hover mouse over dot to see the name of the station.

Then click to see weather observations and forecasts.

To change the map : click on the green buttons with a black cross to zoom in, on the green button with a dash to zoom out, or on the green arrows for adjacent maps.


METAR-TAF: